sensor_id;sensor_type;location;lat;lon;timestamp;temperature;humidity
6724;DHT22;3399;52.530;13.304;2023-03-20T00:01:18;11.90;99.90
6724;DHT22;3399;52.530;13.304;2023-03-20T00:03:44;11.90;99.90
6724;DHT22;3399;52.530;13.304;2023-03-20T00:08:40;11.70;99.90
6724;DHT22;3399;52.530;13.304;2023-03-20T00:13:56;11.40;99.90
6724;DHT22;3399;52.530;13.304;2023-03-20T00:16:23;11.30;99.90
6724;DHT22;3399;52.530;13.304;2023-03-20T00:18:49;11.20;99.90
6724;DHT22;3399;52.530;13.304;2023-03-20T00:21:18;11.10;99.90
6724;DHT22;3399;52.530;13.304;2023-03-20T00:23:44;11.10;99.90
6724;DHT22;3399;52.530;13.304;2023-03-20T00:26:14;11.10;99.90
6724;DHT22;3399;52.530;13.304;2023-03-20T00:31:25;10.90;99.90
6724;DHT22;3399;52.530;13.304;2023-03-20T00:33:52;10.90;99.90
6724;DHT22;3399;52.530;13.304;2023-03-20T00:36:19;10.80;99.90
6724;DHT22;3399;52.530;13.304;2023-03-20T00:38:44;10.80;99.90
6724;DHT22;3399;52.530;13.304;2023-03-20T00:43:55;10.70;99.90
6724;DHT22;3399;52.530;13.304;2023-03-20T00:46:22;10.60;99.90
6724;DHT22;3399;52.530;13.304;2023-03-20T00:48:48;10.60;99.90
6724;DHT22;3399;52.530;13.304;2023-03-20T00:51:14;10.50;99.90
6724;DHT22;3399;52.530;13.304;2023-03-20T00:53:40;10.50;99.90
6724;DHT22;3399;52.530;13.304;2023-03-20T00:56:06;10.40;99.90
6724;DHT22;3399;52.530;13.304;2023-03-20T00:58:36;10.30;99.90
6724;DHT22;3399;52.530;13.304;2023-03-20T01:01:01;10.30;99.90
6724;DHT22;3399;52.530;13.304;2023-03-20T01:03:27;10.20;99.90
6724;DHT22;3399;52.530;13.304;2023-03-20T01:05:54;10.20;99.90
6724;DHT22;3399;52.530;13.304;2023-03-20T01:08:23;10.20;99.90
6724;DHT22;3399;52.530;13.304;2023-03-20T01:10:53;10.20;99.90
6724;DHT22;3399;52.530;13.304;2023-03-20T01:13:24;10.10;99.90
6724;DHT22;3399;52.530;13.304;2023-03-20T01:15:53;10.10;99.90
6724;DHT22;3399;52.530;13.304;2023-03-20T01:18:21;10.20;99.90
6724;DHT22;3399;52.530;13.304;2023-03-20T01:20:47;10.20;99.90
6724;DHT22;3399;52.530;13.304;2023-03-20T01:23:14;10.20;99.90
6724;DHT22;3399;52.530;13.304;2023-03-20T01:25:39;10.20;99.90
6724;DHT22;3399;52.530;13.304;2023-03-20T01:28:18;10.20;99.90
6724;DHT22;3399;52.530;13.304;2023-03-20T01:30:45;10.20;99.90
6724;DHT22;3399;52.530;13.304;2023-03-20T01:33:19;10.20;99.90
6724;DHT22;3399;52.530;13.304;2023-03-20T01:35:46;10.20;99.90
6724;DHT22;3399;52.530;13.304;2023-03-20T01:38:33;10.20;99.90
6724;DHT22;3399;52.530;13.304;2023-03-20T01:41:11;10.30;99.90
6724;DHT22;3399;52.530;13.304;2023-03-20T01:43:37;10.30;99.90
6724;DHT22;3399;52.530;13.304;2023-03-20T01:46:21;10.40;99.90
6724;DHT22;3399;52.530;13.304;2023-03-20T01:51:29;10.40;99.90
6724;DHT22;3399;52.530;13.304;2023-03-20T01:54:09;10.40;99.90
6724;DHT22;3399;52.530;13.304;2023-03-20T01:56:39;10.40;99.90
6724;DHT22;3399;52.530;13.304;2023-03-20T01:59:17;10.40;99.90
6724;DHT22;3399;52.530;13.304;2023-03-20T02:01:44;10.30;99.90
6724;DHT22;3399;52.530;13.304;2023-03-20T02:04:11;10.30;99.90
6724;DHT22;3399;52.530;13.304;2023-03-20T02:06:38;10.20;99.90
6724;DHT22;3399;52.530;13.304;2023-03-20T02:09:04;10.20;99.90
6724;DHT22;3399;52.530;13.304;2023-03-20T02:11:30;10.20;99.90
6724;DHT22;3399;52.530;13.304;2023-03-20T02:13:58;10.20;99.90
6724;DHT22;3399;52.530;13.304;2023-03-20T02:16:24;10.20;99.90
6724;DHT22;3399;52.530;13.304;2023-03-20T02:18:51;10.20;99.90
6724;DHT22;3399;52.530;13.304;2023-03-20T02:27:32;10.30;99.90
6724;DHT22;3399;52.530;13.304;2023-03-20T02:30:38;10.40;99.90
6724;DHT22;3399;52.530;13.304;2023-03-20T02:41:46;10.30;99.90
6724;DHT22;3399;52.530;13.304;2023-03-20T02:44:37;10.30;99.90
6724;DHT22;3399;52.530;13.304;2023-03-20T02:47:13;10.20;99.90
6724;DHT22;3399;52.530;13.304;2023-03-20T02:49:58;10.20;99.90
6724;DHT22;3399;52.530;13.304;2023-03-20T02:55:44;10.30;99.90
6724;DHT22;3399;52.530;13.304;2023-03-20T02:58:23;10.20;99.90
6724;DHT22;3399;52.530;13.304;2023-03-20T03:01:09;10.20;99.90
6724;DHT22;3399;52.530;13.304;2023-03-20T03:03:44;10.20;99.90
6724;DHT22;3399;52.530;13.304;2023-03-20T03:06:21;10.20;99.90
6724;DHT22;3399;52.530;13.304;2023-03-20T03:08:53;10.20;99.90
6724;DHT22;3399;52.530;13.304;2023-03-20T03:11:20;10.20;99.90
6724;DHT22;3399;52.530;13.304;2023-03-20T03:13:52;10.20;99.90
6724;DHT22;3399;52.530;13.304;2023-03-20T03:16:30;10.10;99.90
6724;DHT22;3399;52.530;13.304;2023-03-20T03:19:07;10.10;99.90
6724;DHT22;3399;52.530;13.304;2023-03-20T03:21:34;10.00;99.90
6724;DHT22;3399;52.530;13.304;2023-03-20T03:24:01;10.00;99.90
6724;DHT22;3399;52.530;13.304;2023-03-20T03:26:31;10.00;99.90
6724;DHT22;3399;52.530;13.304;2023-03-20T03:29:00;10.00;99.90
6724;DHT22;3399;52.530;13.304;2023-03-20T03:31:28;10.00;99.90
6724;DHT22;3399;52.530;13.304;2023-03-20T03:33:56;10.00;99.90
6724;DHT22;3399;52.530;13.304;2023-03-20T03:36:41;10.00;99.90
6724;DHT22;3399;52.530;13.304;2023-03-20T03:39:45;10.00;99.90
6724;DHT22;3399;52.530;13.304;2023-03-20T03:42:34;10.00;99.90
6724;DHT22;3399;52.530;13.304;2023-03-20T03:47:38;9.90;99.90
6724;DHT22;3399;52.530;13.304;2023-03-20T03:50:16;9.90;99.90
6724;DHT22;3399;52.530;13.304;2023-03-20T03:52:44;9.80;99.90
6724;DHT22;3399;52.530;13.304;2023-03-20T03:55:18;9.80;99.90
6724;DHT22;3399;52.530;13.304;2023-03-20T03:57:49;9.70;99.90
6724;DHT22;3399;52.530;13.304;2023-03-20T04:00:18;9.80;99.90
6724;DHT22;3399;52.530;13.304;2023-03-20T04:02:48;9.80;99.90
6724;DHT22;3399;52.530;13.304;2023-03-20T04:05:15;9.80;99.90
6724;DHT22;3399;52.530;13.304;2023-03-20T04:07:46;9.70;99.90
6724;DHT22;3399;52.530;13.304;2023-03-20T04:10:12;9.70;99.90
6724;DHT22;3399;52.530;13.304;2023-03-20T04:12:40;9.80;99.90
6724;DHT22;3399;52.530;13.304;2023-03-20T04:15:06;9.70;99.90
6724;DHT22;3399;52.530;13.304;2023-03-20T04:17:33;9.70;99.90
6724;DHT22;3399;52.530;13.304;2023-03-20T04:19:59;9.70;99.90
6724;DHT22;3399;52.530;13.304;2023-03-20T04:22:25;9.60;99.90
6724;DHT22;3399;52.530;13.304;2023-03-20T04:24:51;9.60;99.90
6724;DHT22;3399;52.530;13.304;2023-03-20T04:27:17;9.60;99.90
6724;DHT22;3399;52.530;13.304;2023-03-20T04:29:43;9.60;99.90
6724;DHT22;3399;52.530;13.304;2023-03-20T04:32:09;9.60;99.90
6724;DHT22;3399;52.530;13.304;2023-03-20T04:34:34;9.60;99.90
6724;DHT22;3399;52.530;13.304;2023-03-20T04:37:00;9.60;99.90
6724;DHT22;3399;52.530;13.304;2023-03-20T04:39:26;9.50;99.90
6724;DHT22;3399;52.530;13.304;2023-03-20T04:41:52;9.60;99.90
6724;DHT22;3399;52.530;13.304;2023-03-20T04:44:18;9.60;99.90
6724;DHT22;3399;52.530;13.304;2023-03-20T04:46:43;9.70;99.90
6724;DHT22;3399;52.530;13.304;2023-03-20T04:49:09;9.70;99.90
6724;DHT22;3399;52.530;13.304;2023-03-20T04:51:34;9.70;99.90
6724;DHT22;3399;52.530;13.304;2023-03-20T04:54:00;9.70;99.90
6724;DHT22;3399;52.530;13.304;2023-03-20T04:56:25;9.70;99.90
6724;DHT22;3399;52.530;13.304;2023-03-20T04:58:51;9.60;99.90
6724;DHT22;3399;52.530;13.304;2023-03-20T05:01:16;9.60;99.90
6724;DHT22;3399;52.530;13.304;2023-03-20T05:03:42;9.50;99.90
6724;DHT22;3399;52.530;13.304;2023-03-20T05:06:08;9.60;99.90
6724;DHT22;3399;52.530;13.304;2023-03-20T05:08:33;9.60;99.90
6724;DHT22;3399;52.530;13.304;2023-03-20T05:10:59;9.60;99.90
6724;DHT22;3399;52.530;13.304;2023-03-20T05:13:24;9.60;99.90
6724;DHT22;3399;52.530;13.304;2023-03-20T05:15:50;9.60;99.90
6724;DHT22;3399;52.530;13.304;2023-03-20T05:18:16;9.60;99.90
6724;DHT22;3399;52.530;13.304;2023-03-20T05:20:41;9.60;99.90
6724;DHT22;3399;52.530;13.304;2023-03-20T05:23:07;9.60;99.90
6724;DHT22;3399;52.530;13.304;2023-03-20T05:25:32;9.60;99.90
6724;DHT22;3399;52.530;13.304;2023-03-20T05:27:58;9.60;99.90
6724;DHT22;3399;52.530;13.304;2023-03-20T05:30:23;9.60;99.90
6724;DHT22;3399;52.530;13.304;2023-03-20T05:32:50;9.60;99.90
6724;DHT22;3399;52.530;13.304;2023-03-20T05:35:16;9.60;99.90
6724;DHT22;3399;52.530;13.304;2023-03-20T05:37:42;9.60;99.90
6724;DHT22;3399;52.530;13.304;2023-03-20T05:40:11;9.70;99.90
6724;DHT22;3399;52.530;13.304;2023-03-20T05:42:37;9.70;99.90
6724;DHT22;3399;52.530;13.304;2023-03-20T05:45:03;9.70;99.90
6724;DHT22;3399;52.530;13.304;2023-03-20T05:47:29;9.70;99.90
6724;DHT22;3399;52.530;13.304;2023-03-20T05:49:54;9.70;99.90
6724;DHT22;3399;52.530;13.304;2023-03-20T05:52:20;9.70;99.90
6724;DHT22;3399;52.530;13.304;2023-03-20T05:54:45;9.70;99.90
6724;DHT22;3399;52.530;13.304;2023-03-20T05:57:11;9.70;99.90
6724;DHT22;3399;52.530;13.304;2023-03-20T05:59:37;9.70;99.90
6724;DHT22;3399;52.530;13.304;2023-03-20T06:02:03;9.80;99.90
6724;DHT22;3399;52.530;13.304;2023-03-20T06:04:28;9.80;99.90
6724;DHT22;3399;52.530;13.304;2023-03-20T06:06:54;9.80;99.90
6724;DHT22;3399;52.530;13.304;2023-03-20T06:09:20;9.80;99.90
6724;DHT22;3399;52.530;13.304;2023-03-20T06:11:45;9.80;99.90
6724;DHT22;3399;52.530;13.304;2023-03-20T06:14:11;9.80;99.90
6724;DHT22;3399;52.530;13.304;2023-03-20T06:16:36;9.70;99.90
6724;DHT22;3399;52.530;13.304;2023-03-20T06:19:02;9.60;99.90
6724;DHT22;3399;52.530;13.304;2023-03-20T06:21:27;9.50;99.90
6724;DHT22;3399;52.530;13.304;2023-03-20T06:23:53;9.40;99.90
6724;DHT22;3399;52.530;13.304;2023-03-20T06:26:19;9.40;99.90
6724;DHT22;3399;52.530;13.304;2023-03-20T06:28:45;9.40;99.90
6724;DHT22;3399;52.530;13.304;2023-03-20T06:31:11;9.30;99.90
6724;DHT22;3399;52.530;13.304;2023-03-20T06:33:36;9.30;99.90
6724;DHT22;3399;52.530;13.304;2023-03-20T06:36:03;9.20;99.90
6724;DHT22;3399;52.530;13.304;2023-03-20T06:38:29;9.10;99.90
6724;DHT22;3399;52.530;13.304;2023-03-20T06:40:54;9.10;99.90
6724;DHT22;3399;52.530;13.304;2023-03-20T06:43:20;9.10;99.90
6724;DHT22;3399;52.530;13.304;2023-03-20T06:45:46;9.10;99.90
6724;DHT22;3399;52.530;13.304;2023-03-20T06:48:12;9.10;99.90
6724;DHT22;3399;52.530;13.304;2023-03-20T06:50:38;9.10;99.90
6724;DHT22;3399;52.530;13.304;2023-03-20T06:53:03;9.10;99.90
6724;DHT22;3399;52.530;13.304;2023-03-20T06:55:29;9.00;99.90
6724;DHT22;3399;52.530;13.304;2023-03-20T06:57:55;9.00;99.90
6724;DHT22;3399;52.530;13.304;2023-03-20T07:00:21;9.10;99.90
6724;DHT22;3399;52.530;13.304;2023-03-20T07:02:47;9.10;99.90
6724;DHT22;3399;52.530;13.304;2023-03-20T07:05:14;9.10;99.90
6724;DHT22;3399;52.530;13.304;2023-03-20T07:07:39;9.10;99.90
6724;DHT22;3399;52.530;13.304;2023-03-20T07:10:05;9.10;99.90
6724;DHT22;3399;52.530;13.304;2023-03-20T07:12:31;9.10;99.90
6724;DHT22;3399;52.530;13.304;2023-03-20T07:14:57;9.00;99.90
6724;DHT22;3399;52.530;13.304;2023-03-20T07:17:22;9.00;99.90
6724;DHT22;3399;52.530;13.304;2023-03-20T07:19:48;9.00;99.90
6724;DHT22;3399;52.530;13.304;2023-03-20T07:22:20;8.90;99.90
6724;DHT22;3399;52.530;13.304;2023-03-20T07:24:47;8.90;99.90
6724;DHT22;3399;52.530;13.304;2023-03-20T07:27:12;8.80;99.90
6724;DHT22;3399;52.530;13.304;2023-03-20T07:29:38;8.80;99.90
6724;DHT22;3399;52.530;13.304;2023-03-20T07:32:04;8.80;99.90
6724;DHT22;3399;52.530;13.304;2023-03-20T07:34:29;8.80;99.90
6724;DHT22;3399;52.530;13.304;2023-03-20T07:36:55;8.80;99.90
6724;DHT22;3399;52.530;13.304;2023-03-20T07:39:21;8.90;99.90
6724;DHT22;3399;52.530;13.304;2023-03-20T07:41:46;8.90;99.90
6724;DHT22;3399;52.530;13.304;2023-03-20T07:44:12;8.90;99.90
6724;DHT22;3399;52.530;13.304;2023-03-20T07:46:39;9.00;99.90
6724;DHT22;3399;52.530;13.304;2023-03-20T07:49:05;9.10;99.90
6724;DHT22;3399;52.530;13.304;2023-03-20T07:51:31;9.40;99.90
6724;DHT22;3399;52.530;13.304;2023-03-20T07:53:56;9.60;99.90
6724;DHT22;3399;52.530;13.304;2023-03-20T07:56:22;9.70;99.90
6724;DHT22;3399;52.530;13.304;2023-03-20T07:58:47;9.80;99.90
6724;DHT22;3399;52.530;13.304;2023-03-20T08:01:13;9.80;99.90
6724;DHT22;3399;52.530;13.304;2023-03-20T08:03:39;9.80;99.90
6724;DHT22;3399;52.530;13.304;2023-03-20T08:06:04;9.90;99.90
6724;DHT22;3399;52.530;13.304;2023-03-20T08:08:32;9.80;99.90
6724;DHT22;3399;52.530;13.304;2023-03-20T08:10:57;9.90;99.90
6724;DHT22;3399;52.530;13.304;2023-03-20T08:13:23;9.80;99.90
6724;DHT22;3399;52.530;13.304;2023-03-20T08:15:48;9.80;99.90
6724;DHT22;3399;52.530;13.304;2023-03-20T08:18:14;9.80;99.90
6724;DHT22;3399;52.530;13.304;2023-03-20T08:20:39;9.70;99.90
6724;DHT22;3399;52.530;13.304;2023-03-20T08:23:05;9.70;99.90
6724;DHT22;3399;52.530;13.304;2023-03-20T08:25:32;9.70;99.90
6724;DHT22;3399;52.530;13.304;2023-03-20T08:28:01;9.70;99.90
6724;DHT22;3399;52.530;13.304;2023-03-20T08:30:27;9.80;99.90
6724;DHT22;3399;52.530;13.304;2023-03-20T08:32:53;9.90;99.90
6724;DHT22;3399;52.530;13.304;2023-03-20T08:35:18;10.10;99.90
6724;DHT22;3399;52.530;13.304;2023-03-20T08:37:44;10.20;99.90
6724;DHT22;3399;52.530;13.304;2023-03-20T08:40:10;10.40;99.90
6724;DHT22;3399;52.530;13.304;2023-03-20T08:42:36;10.50;99.90
6724;DHT22;3399;52.530;13.304;2023-03-20T08:45:02;10.60;99.90
6724;DHT22;3399;52.530;13.304;2023-03-20T08:47:27;10.70;99.90
6724;DHT22;3399;52.530;13.304;2023-03-20T08:49:53;10.90;99.90
6724;DHT22;3399;52.530;13.304;2023-03-20T08:52:18;11.20;99.90
6724;DHT22;3399;52.530;13.304;2023-03-20T08:54:44;11.10;99.90
6724;DHT22;3399;52.530;13.304;2023-03-20T08:57:09;11.00;99.90
6724;DHT22;3399;52.530;13.304;2023-03-20T08:59:35;11.20;99.90
6724;DHT22;3399;52.530;13.304;2023-03-20T09:02:01;11.40;99.90
6724;DHT22;3399;52.530;13.304;2023-03-20T09:04:26;11.60;99.90
6724;DHT22;3399;52.530;13.304;2023-03-20T09:06:52;11.80;99.90
6724;DHT22;3399;52.530;13.304;2023-03-20T09:09:17;11.80;99.90
6724;DHT22;3399;52.530;13.304;2023-03-20T09:11:45;11.80;99.90
6724;DHT22;3399;52.530;13.304;2023-03-20T09:14:11;11.90;99.90
6724;DHT22;3399;52.530;13.304;2023-03-20T09:16:36;12.00;99.90
6724;DHT22;3399;52.530;13.304;2023-03-20T09:19:02;12.00;99.90
6724;DHT22;3399;52.530;13.304;2023-03-20T09:21:31;12.10;99.90
6724;DHT22;3399;52.530;13.304;2023-03-20T09:23:56;12.20;99.90
6724;DHT22;3399;52.530;13.304;2023-03-20T09:26:22;12.20;99.90
6724;DHT22;3399;52.530;13.304;2023-03-20T09:28:48;12.30;99.90
6724;DHT22;3399;52.530;13.304;2023-03-20T09:31:13;12.30;99.90
6724;DHT22;3399;52.530;13.304;2023-03-20T09:33:39;12.30;99.90
6724;DHT22;3399;52.530;13.304;2023-03-20T09:36:05;12.40;99.90
6724;DHT22;3399;52.530;13.304;2023-03-20T09:38:32;12.40;99.90
6724;DHT22;3399;52.530;13.304;2023-03-20T09:41:00;12.40;99.90
6724;DHT22;3399;52.530;13.304;2023-03-20T09:48:57;12.20;99.90
6724;DHT22;3399;52.530;13.304;2023-03-20T09:54:07;12.30;99.90
6724;DHT22;3399;52.530;13.304;2023-03-20T09:56:36;12.40;99.90
6724;DHT22;3399;52.530;13.304;2023-03-20T09:59:04;12.30;99.90
6724;DHT22;3399;52.530;13.304;2023-03-20T10:01:49;12.20;99.90
6724;DHT22;3399;52.530;13.304;2023-03-20T10:04:16;12.10;99.90
6724;DHT22;3399;52.530;13.304;2023-03-20T10:06:41;12.10;99.90
6724;DHT22;3399;52.530;13.304;2023-03-20T10:09:14;12.10;99.90
6724;DHT22;3399;52.530;13.304;2023-03-20T10:11:59;12.00;99.90
6724;DHT22;3399;52.530;13.304;2023-03-20T10:14:57;12.00;99.90
6724;DHT22;3399;52.530;13.304;2023-03-20T10:17:36;12.00;99.90
6724;DHT22;3399;52.530;13.304;2023-03-20T10:22:58;12.20;99.90
6724;DHT22;3399;52.530;13.304;2023-03-20T10:25:35;12.10;99.90
6724;DHT22;3399;52.530;13.304;2023-03-20T10:28:11;11.90;99.90
6724;DHT22;3399;52.530;13.304;2023-03-20T10:36:16;12.00;99.90
6724;DHT22;3399;52.530;13.304;2023-03-20T10:39:03;12.20;99.90
6724;DHT22;3399;52.530;13.304;2023-03-20T10:41:36;12.50;99.90
6724;DHT22;3399;52.530;13.304;2023-03-20T10:44:04;12.60;99.90
6724;DHT22;3399;52.530;13.304;2023-03-20T10:46:41;12.60;99.90
6724;DHT22;3399;52.530;13.304;2023-03-20T10:49:28;12.50;99.90
6724;DHT22;3399;52.530;13.304;2023-03-20T10:51:58;12.40;99.90
6724;DHT22;3399;52.530;13.304;2023-03-20T10:54:30;12.40;99.90
6724;DHT22;3399;52.530;13.304;2023-03-20T10:57:03;12.50;99.90
6724;DHT22;3399;52.530;13.304;2023-03-20T10:59:39;12.50;99.90
6724;DHT22;3399;52.530;13.304;2023-03-20T11:02:12;12.50;99.90
6724;DHT22;3399;52.530;13.304;2023-03-20T11:04:38;12.40;99.90
6724;DHT22;3399;52.530;13.304;2023-03-20T11:12:36;12.50;99.90
6724;DHT22;3399;52.530;13.304;2023-03-20T11:15:37;12.30;99.90
6724;DHT22;3399;52.530;13.304;2023-03-20T11:17:58;12.30;99.90
6724;DHT22;3399;52.530;13.304;2023-03-20T11:20:37;12.30;99.90
6724;DHT22;3399;52.530;13.304;2023-03-20T11:23:05;12.30;99.90
6724;DHT22;3399;52.530;13.304;2023-03-20T11:25:36;12.30;99.90
6724;DHT22;3399;52.530;13.304;2023-03-20T11:28:20;12.20;99.90
6724;DHT22;3399;52.530;13.304;2023-03-20T11:30:49;12.30;99.90
6724;DHT22;3399;52.530;13.304;2023-03-20T11:33:15;12.40;99.90
6724;DHT22;3399;52.530;13.304;2023-03-20T11:35:45;12.40;99.90
6724;DHT22;3399;52.530;13.304;2023-03-20T11:38:16;12.70;99.90
6724;DHT22;3399;52.530;13.304;2023-03-20T11:40:45;12.70;99.90
6724;DHT22;3399;52.530;13.304;2023-03-20T11:43:17;12.70;99.90
6724;DHT22;3399;52.530;13.304;2023-03-20T11:45:45;12.60;99.90
6724;DHT22;3399;52.530;13.304;2023-03-20T11:48:18;12.40;99.90
6724;DHT22;3399;52.530;13.304;2023-03-20T11:50:55;12.40;99.90
6724;DHT22;3399;52.530;13.304;2023-03-20T11:53:39;12.60;99.90
6724;DHT22;3399;52.530;13.304;2023-03-20T11:56:26;12.50;99.90
6724;DHT22;3399;52.530;13.304;2023-03-20T11:59:03;12.40;99.90
6724;DHT22;3399;52.530;13.304;2023-03-20T12:01:53;12.40;99.90
6724;DHT22;3399;52.530;13.304;2023-03-20T12:07:05;12.20;99.90
6724;DHT22;3399;52.530;13.304;2023-03-20T12:09:43;12.10;99.90
6724;DHT22;3399;52.530;13.304;2023-03-20T12:14:54;12.40;99.90
6724;DHT22;3399;52.530;13.304;2023-03-20T12:23:08;12.40;99.90
6724;DHT22;3399;52.530;13.304;2023-03-20T12:28:25;12.40;99.90
6724;DHT22;3399;52.530;13.304;2023-03-20T12:33:56;12.30;99.90
6724;DHT22;3399;52.530;13.304;2023-03-20T12:36:32;12.20;99.90
6724;DHT22;3399;52.530;13.304;2023-03-20T12:39:01;12.10;99.90
6724;DHT22;3399;52.530;13.304;2023-03-20T12:41:34;12.00;99.90
6724;DHT22;3399;52.530;13.304;2023-03-20T12:44:12;11.90;99.90
6724;DHT22;3399;52.530;13.304;2023-03-20T12:46:48;11.80;99.90
6724;DHT22;3399;52.530;13.304;2023-03-20T12:52:12;11.90;99.90
6724;DHT22;3399;52.530;13.304;2023-03-20T12:54:55;11.90;99.90
6724;DHT22;3399;52.530;13.304;2023-03-20T13:00:36;12.00;99.90
6724;DHT22;3399;52.530;13.304;2023-03-20T13:03:26;12.10;99.90
6724;DHT22;3399;52.530;13.304;2023-03-20T13:06:13;11.90;99.90
6724;DHT22;3399;52.530;13.304;2023-03-20T13:09:03;11.80;99.90
6724;DHT22;3399;52.530;13.304;2023-03-20T13:11:35;11.80;99.90
6724;DHT22;3399;52.530;13.304;2023-03-20T13:17:10;12.00;99.90
6724;DHT22;3399;52.530;13.304;2023-03-20T13:19:52;12.10;99.90
6724;DHT22;3399;52.530;13.304;2023-03-20T13:22:31;12.00;99.90
6724;DHT22;3399;52.530;13.304;2023-03-20T13:25:31;11.90;99.90
6724;DHT22;3399;52.530;13.304;2023-03-20T13:28:13;11.80;99.90
6724;DHT22;3399;52.530;13.304;2023-03-20T13:31:03;11.90;99.90
6724;DHT22;3399;52.530;13.304;2023-03-20T13:33:42;11.90;99.90
6724;DHT22;3399;52.530;13.304;2023-03-20T13:36:17;12.00;99.90
6724;DHT22;3399;52.530;13.304;2023-03-20T13:38:59;12.00;99.90
6724;DHT22;3399;52.530;13.304;2023-03-20T13:41:27;12.10;99.90
6724;DHT22;3399;52.530;13.304;2023-03-20T13:43:57;12.30;99.90
6724;DHT22;3399;52.530;13.304;2023-03-20T13:46:32;12.40;99.90
6724;DHT22;3399;52.530;13.304;2023-03-20T13:49:05;12.40;99.90
6724;DHT22;3399;52.530;13.304;2023-03-20T13:51:47;12.30;99.90
6724;DHT22;3399;52.530;13.304;2023-03-20T13:54:30;12.20;99.90
6724;DHT22;3399;52.530;13.304;2023-03-20T13:57:19;12.20;99.90
6724;DHT22;3399;52.530;13.304;2023-03-20T13:59:53;12.20;99.90
6724;DHT22;3399;52.530;13.304;2023-03-20T14:05:23;12.20;99.90
6724;DHT22;3399;52.530;13.304;2023-03-20T14:07:55;12.00;99.90
6724;DHT22;3399;52.530;13.304;2023-03-20T14:12:56;12.10;99.90
6724;DHT22;3399;52.530;13.304;2023-03-20T14:15:31;12.20;99.90
6724;DHT22;3399;52.530;13.304;2023-03-20T14:17:57;12.20;99.90
6724;DHT22;3399;52.530;13.304;2023-03-20T14:20:39;12.10;99.90
6724;DHT22;3399;52.530;13.304;2023-03-20T14:23:06;12.20;99.90
6724;DHT22;3399;52.530;13.304;2023-03-20T14:25:40;12.20;99.90
6724;DHT22;3399;52.530;13.304;2023-03-20T14:30:42;12.10;99.90
6724;DHT22;3399;52.530;13.304;2023-03-20T14:35:48;11.90;99.90
6724;DHT22;3399;52.530;13.304;2023-03-20T14:38:28;11.90;99.90
6724;DHT22;3399;52.530;13.304;2023-03-20T14:41:11;11.80;99.90
6724;DHT22;3399;52.530;13.304;2023-03-20T14:44:04;11.80;99.90
6724;DHT22;3399;52.530;13.304;2023-03-20T14:46:42;11.70;99.90
6724;DHT22;3399;52.530;13.304;2023-03-20T14:49:44;11.70;99.90
6724;DHT22;3399;52.530;13.304;2023-03-20T14:52:32;11.60;99.90
6724;DHT22;3399;52.530;13.304;2023-03-20T14:57:46;11.60;99.90
6724;DHT22;3399;52.530;13.304;2023-03-20T15:00:35;11.60;99.90
6724;DHT22;3399;52.530;13.304;2023-03-20T15:03:10;11.60;99.90
6724;DHT22;3399;52.530;13.304;2023-03-20T15:05:38;11.60;99.90
6724;DHT22;3399;52.530;13.304;2023-03-20T15:08:10;11.70;99.90
6724;DHT22;3399;52.530;13.304;2023-03-20T15:10:48;11.80;99.90
6724;DHT22;3399;52.530;13.304;2023-03-20T15:13:15;11.90;99.90
6724;DHT22;3399;52.530;13.304;2023-03-20T15:16:29;11.80;99.90
6724;DHT22;3399;52.530;13.304;2023-03-20T15:18:50;11.80;99.90
6724;DHT22;3399;52.530;13.304;2023-03-20T15:21:38;11.90;99.90
6724;DHT22;3399;52.530;13.304;2023-03-20T15:24:06;11.90;99.90
6724;DHT22;3399;52.530;13.304;2023-03-20T15:26:33;11.90;99.90
6724;DHT22;3399;52.530;13.304;2023-03-20T15:29:01;11.90;99.90
6724;DHT22;3399;52.530;13.304;2023-03-20T15:31:33;11.90;99.90
6724;DHT22;3399;52.530;13.304;2023-03-20T15:34:06;11.90;99.90
6724;DHT22;3399;52.530;13.304;2023-03-20T15:36:34;11.90;99.90
6724;DHT22;3399;52.530;13.304;2023-03-20T15:39:22;11.90;99.90
6724;DHT22;3399;52.530;13.304;2023-03-20T15:41:55;11.90;99.90
6724;DHT22;3399;52.530;13.304;2023-03-20T15:44:25;11.80;99.90
6724;DHT22;3399;52.530;13.304;2023-03-20T15:47:02;11.90;99.90
6724;DHT22;3399;52.530;13.304;2023-03-20T15:49:31;11.80;99.90
6724;DHT22;3399;52.530;13.304;2023-03-20T15:52:07;11.80;99.90
6724;DHT22;3399;52.530;13.304;2023-03-20T15:54:41;11.70;99.90
6724;DHT22;3399;52.530;13.304;2023-03-20T15:57:11;11.80;99.90
6724;DHT22;3399;52.530;13.304;2023-03-20T15:59:39;11.80;99.90
6724;DHT22;3399;52.530;13.304;2023-03-20T16:02:07;11.90;99.90
6724;DHT22;3399;52.530;13.304;2023-03-20T16:04:33;11.90;99.90
6724;DHT22;3399;52.530;13.304;2023-03-20T16:06:59;12.00;99.90
6724;DHT22;3399;52.530;13.304;2023-03-20T16:09:26;11.70;99.90
6724;DHT22;3399;52.530;13.304;2023-03-20T16:12:00;11.60;99.90
6724;DHT22;3399;52.530;13.304;2023-03-20T16:14:28;11.40;99.90
6724;DHT22;3399;52.530;13.304;2023-03-20T16:16:58;11.40;99.90
6724;DHT22;3399;52.530;13.304;2023-03-20T16:19:24;11.30;99.90
6724;DHT22;3399;52.530;13.304;2023-03-20T16:21:56;11.30;99.90
6724;DHT22;3399;52.530;13.304;2023-03-20T16:24:33;11.30;99.90
6724;DHT22;3399;52.530;13.304;2023-03-20T16:27:04;11.30;99.90
6724;DHT22;3399;52.530;13.304;2023-03-20T16:29:30;11.30;99.90
6724;DHT22;3399;52.530;13.304;2023-03-20T16:32:06;11.30;99.90
6724;DHT22;3399;52.530;13.304;2023-03-20T16:34:34;11.20;99.90
6724;DHT22;3399;52.530;13.304;2023-03-20T16:37:05;11.20;99.90
6724;DHT22;3399;52.530;13.304;2023-03-20T16:39:31;11.10;99.90
6724;DHT22;3399;52.530;13.304;2023-03-20T16:42:22;11.20;99.90
6724;DHT22;3399;52.530;13.304;2023-03-20T16:44:56;11.20;99.90
6724;DHT22;3399;52.530;13.304;2023-03-20T16:47:33;11.30;99.90
6724;DHT22;3399;52.530;13.304;2023-03-20T16:52:37;11.50;99.90
6724;DHT22;3399;52.530;13.304;2023-03-20T16:55:04;11.50;99.90
6724;DHT22;3399;52.530;13.304;2023-03-20T16:57:34;11.50;99.90
6724;DHT22;3399;52.530;13.304;2023-03-20T17:00:06;11.40;99.90
6724;DHT22;3399;52.530;13.304;2023-03-20T17:02:49;11.50;99.90
6724;DHT22;3399;52.530;13.304;2023-03-20T17:05:19;11.40;99.90
6724;DHT22;3399;52.530;13.304;2023-03-20T17:07:49;11.40;99.90
6724;DHT22;3399;52.530;13.304;2023-03-20T17:12:41;11.20;99.90
6724;DHT22;3399;52.530;13.304;2023-03-20T17:15:20;11.20;99.90
6724;DHT22;3399;52.530;13.304;2023-03-20T17:17:46;11.30;99.90
6724;DHT22;3399;52.530;13.304;2023-03-20T17:20:24;11.30;99.90
6724;DHT22;3399;52.530;13.304;2023-03-20T17:22:50;11.30;99.90
6724;DHT22;3399;52.530;13.304;2023-03-20T17:25:15;11.30;99.90
6724;DHT22;3399;52.530;13.304;2023-03-20T17:27:41;11.20;99.90
6724;DHT22;3399;52.530;13.304;2023-03-20T17:30:18;11.20;99.90
6724;DHT22;3399;52.530;13.304;2023-03-20T17:32:45;11.20;99.90
6724;DHT22;3399;52.530;13.304;2023-03-20T17:35:11;11.20;99.90
6724;DHT22;3399;52.530;13.304;2023-03-20T17:37:37;11.20;99.90
6724;DHT22;3399;52.530;13.304;2023-03-20T17:40:06;11.20;99.90
6724;DHT22;3399;52.530;13.304;2023-03-20T17:42:32;11.30;99.90
6724;DHT22;3399;52.530;13.304;2023-03-20T17:44:59;11.20;99.90
6724;DHT22;3399;52.530;13.304;2023-03-20T17:47:26;11.10;99.90
6724;DHT22;3399;52.530;13.304;2023-03-20T17:49:52;11.10;99.90
6724;DHT22;3399;52.530;13.304;2023-03-20T17:52:21;11.00;99.90